Panna Maria, Texas
Current Conditions -  °F | °C
As of 10:35 AM on Tuesday 21 Oct 2014 (Local Time) from KPEZ Reporting Station
Clear Clear  
Wind Chill: 75°   Ceiling: Unl
Heat Index: 75°   Visibility: 10mi
Dew Point: 60°   Wind: 8mph
Humidity: 60%   Direction: 70°ENE
Pressure: 30.08"   Gusts: NA
Location:  28.96°N, 97.9°W
Report Text: KPEZ 211535Z AUTO 07007KT 10SM CLR 24/15 A3008 RMK AO2 T02370154
Loading
Personal Weather Stations






























Interactive Weather Map
Tropical Storm Tracking
New forecast layout! Learn more

10-Day Weather Forecast

Advertisements
Track Severe Weather on mobile